sensor_id;sensor_type;location;lat;lon;timestamp;pressure;altitude;pressure_sealevel;temperature;humidity
55679;BME280;41573;51.446;-2.018;2022-10-15T00:00:47;99671.41;;;10.41;100.00
55679;BME280;41573;51.446;-2.018;2022-10-15T00:03:13;99664.50;;;10.38;100.00
55679;BME280;41573;51.446;-2.018;2022-10-15T00:05:39;99659.16;;;10.38;100.00
55679;BME280;41573;51.446;-2.018;2022-10-15T00:08:05;99653.84;;;10.38;100.00
55679;BME280;41573;51.446;-2.018;2022-10-15T00:10:31;99654.56;;;10.40;100.00
55679;BME280;41573;51.446;-2.018;2022-10-15T00:12:56;99651.69;;;10.43;100.00
55679;BME280;41573;51.446;-2.018;2022-10-15T00:15:22;99648.06;;;10.44;100.00
55679;BME280;41573;51.446;-2.018;2022-10-15T00:17:47;99651.47;;;10.46;100.00
55679;BME280;41573;51.446;-2.018;2022-10-15T00:20:13;99652.31;;;10.47;100.00
55679;BME280;41573;51.446;-2.018;2022-10-15T00:22:39;99642.50;;;10.47;100.00
55679;BME280;41573;51.446;-2.018;2022-10-15T00:25:06;99647.94;;;10.46;100.00
55679;BME280;41573;51.446;-2.018;2022-10-15T00:27:33;99652.31;;;10.47;100.00
55679;BME280;41573;51.446;-2.018;2022-10-15T00:29:58;99645.16;;;10.47;100.00
55679;BME280;41573;51.446;-2.018;2022-10-15T00:32:24;99642.28;;;10.50;100.00
55679;BME280;41573;51.446;-2.018;2022-10-15T00:34:50;99640.63;;;10.61;100.00
55679;BME280;41573;51.446;-2.018;2022-10-15T00:37:15;99636.16;;;10.73;100.00
55679;BME280;41573;51.446;-2.018;2022-10-15T00:39:41;99634.63;;;10.81;100.00
55679;BME280;41573;51.446;-2.018;2022-10-15T00:42:09;99638.28;;;10.80;100.00
55679;BME280;41573;51.446;-2.018;2022-10-15T00:44:57;99636.72;;;10.89;100.00
55679;BME280;41573;51.446;-2.018;2022-10-15T00:47:35;99630.31;;;10.92;100.00
55679;BME280;41573;51.446;-2.018;2022-10-15T00:50:07;99627.53;;;10.93;100.00
55679;BME280;41573;51.446;-2.018;2022-10-15T00:55:16;99626.66;;;10.93;100.00
55679;BME280;41573;51.446;-2.018;2022-10-15T00:57:43;99607.03;;;10.94;100.00
55679;BME280;41573;51.446;-2.018;2022-10-15T01:00:12;99602.56;;;10.94;100.00
55679;BME280;41573;51.446;-2.018;2022-10-15T01:02:39;99601.84;;;10.92;100.00
55679;BME280;41573;51.446;-2.018;2022-10-15T01:05:06;99599.66;;;10.86;100.00
55679;BME280;41573;51.446;-2.018;2022-10-15T01:07:32;99592.38;;;10.88;100.00
55679;BME280;41573;51.446;-2.018;2022-10-15T01:09:58;99596.38;;;10.94;100.00
55679;BME280;41573;51.446;-2.018;2022-10-15T01:12:50;99596.38;;;10.94;100.00
55679;BME280;41573;51.446;-2.018;2022-10-15T01:18:31;99583.78;;;10.96;100.00
55679;BME280;41573;51.446;-2.018;2022-10-15T01:26:34;99591.91;;;10.94;100.00
55679;BME280;41573;51.446;-2.018;2022-10-15T01:32:23;99577.13;;;11.01;100.00
55679;BME280;41573;51.446;-2.018;2022-10-15T01:39:54;99563.47;;;11.06;100.00
55679;BME280;41573;51.446;-2.018;2022-10-15T01:42:32;99562.38;;;11.09;100.00
55679;BME280;41573;51.446;-2.018;2022-10-15T01:45:07;99554.75;;;11.04;100.00
55679;BME280;41573;51.446;-2.018;2022-10-15T01:47:45;99562.97;;;11.01;100.00
55679;BME280;41573;51.446;-2.018;2022-10-15T01:50:14;99555.94;;;11.00;100.00
55679;BME280;41573;51.446;-2.018;2022-10-15T01:52:41;99552.69;;;10.96;100.00
55679;BME280;41573;51.446;-2.018;2022-10-15T01:55:10;99545.91;;;10.92;100.00
55679;BME280;41573;51.446;-2.018;2022-10-15T01:57:38;99546.50;;;10.96;100.00
55679;BME280;41573;51.446;-2.018;2022-10-15T02:00:06;99539.38;;;10.96;100.00
55679;BME280;41573;51.446;-2.018;2022-10-15T02:02:31;99525.31;;;10.94;100.00
55679;BME280;41573;51.446;-2.018;2022-10-15T02:04:57;99531.75;;;10.92;100.00
55679;BME280;41573;51.446;-2.018;2022-10-15T02:10:23;99520.72;;;10.96;100.00
55679;BME280;41573;51.446;-2.018;2022-10-15T02:15:35;99508.00;;;10.89;100.00
55679;BME280;41573;51.446;-2.018;2022-10-15T02:18:26;99497.22;;;10.90;100.00
55679;BME280;41573;51.446;-2.018;2022-10-15T02:20:59;99486.22;;;10.95;100.00
55679;BME280;41573;51.446;-2.018;2022-10-15T02:23:30;99478.94;;;10.97;100.00
55679;BME280;41573;51.446;-2.018;2022-10-15T02:26:03;99474.47;;;10.97;100.00
55679;BME280;41573;51.446;-2.018;2022-10-15T02:28:32;99472.78;;;10.96;100.00
55679;BME280;41573;51.446;-2.018;2022-10-15T02:31:00;99476.03;;;11.00;100.00
55679;BME280;41573;51.446;-2.018;2022-10-15T02:33:28;99466.47;;;11.09;100.00
55679;BME280;41573;51.446;-2.018;2022-10-15T02:35:56;99463.91;;;11.07;100.00
55679;BME280;41573;51.446;-2.018;2022-10-15T02:38:24;99457.84;;;11.16;100.00
55679;BME280;41573;51.446;-2.018;2022-10-15T02:40:51;99462.34;;;11.16;100.00
55679;BME280;41573;51.446;-2.018;2022-10-15T02:43:19;99448.28;;;11.14;100.00
55679;BME280;41573;51.446;-2.018;2022-10-15T02:45:45;99440.91;;;11.17;100.00
55679;BME280;41573;51.446;-2.018;2022-10-15T02:48:11;99443.56;;;11.17;100.00
55679;BME280;41573;51.446;-2.018;2022-10-15T02:50:36;99450.81;;;11.15;100.00
55679;BME280;41573;51.446;-2.018;2022-10-15T02:53:02;99440.16;;;11.04;100.00
55679;BME280;41573;51.446;-2.018;2022-10-15T02:55:27;99437.75;;;11.01;100.00
55679;BME280;41573;51.446;-2.018;2022-10-15T02:57:52;99446.72;;;11.00;100.00
55679;BME280;41573;51.446;-2.018;2022-10-15T03:00:18;99452.66;;;11.03;100.00
55679;BME280;41573;51.446;-2.018;2022-10-15T03:02:44;99451.81;;;11.03;100.00
55679;BME280;41573;51.446;-2.018;2022-10-15T03:05:09;99441.63;;;10.97;100.00
55679;BME280;41573;51.446;-2.018;2022-10-15T03:07:35;99446.72;;;11.00;100.00
55679;BME280;41573;51.446;-2.018;2022-10-15T03:10:01;99449.63;;;11.08;100.00
55679;BME280;41573;51.446;-2.018;2022-10-15T03:12:26;99446.00;;;11.09;100.00
55679;BME280;41573;51.446;-2.018;2022-10-15T03:14:52;99443.91;;;11.13;100.00
55679;BME280;41573;51.446;-2.018;2022-10-15T03:17:18;99437.63;;;11.14;100.00
55679;BME280;41573;51.446;-2.018;2022-10-15T03:19:44;99435.56;;;11.17;100.00
55679;BME280;41573;51.446;-2.018;2022-10-15T03:22:09;99433.38;;;11.11;100.00
55679;BME280;41573;51.446;-2.018;2022-10-15T03:24:34;99438.34;;;11.16;100.00
55679;BME280;41573;51.446;-2.018;2022-10-15T03:27:00;99431.91;;;11.18;100.00
55679;BME280;41573;51.446;-2.018;2022-10-15T03:29:25;99425.97;;;11.26;100.00
55679;BME280;41573;51.446;-2.018;2022-10-15T03:31:51;99422.44;;;11.26;100.00
55679;BME280;41573;51.446;-2.018;2022-10-15T03:34:17;99417.97;;;11.26;100.00
55679;BME280;41573;51.446;-2.018;2022-10-15T03:36:42;99414.09;;;11.30;100.00
55679;BME280;41573;51.446;-2.018;2022-10-15T03:39:07;99402.34;;;11.33;100.00
55679;BME280;41573;51.446;-2.018;2022-10-15T03:41:33;99417.34;;;11.34;100.00
55679;BME280;41573;51.446;-2.018;2022-10-15T03:44:00;99408.63;;;11.32;100.00
55679;BME280;41573;51.446;-2.018;2022-10-15T03:46:26;99401.34;;;11.34;100.00
55679;BME280;41573;51.446;-2.018;2022-10-15T03:48:51;99400.63;;;11.32;100.00
55679;BME280;41573;51.446;-2.018;2022-10-15T03:51:17;99404.75;;;11.36;100.00
55679;BME280;41573;51.446;-2.018;2022-10-15T03:53:42;99415.66;;;11.33;100.00
55679;BME280;41573;51.446;-2.018;2022-10-15T03:56:07;99410.91;;;11.36;100.00
55679;BME280;41573;51.446;-2.018;2022-10-15T03:58:33;99403.75;;;11.37;100.00
55679;BME280;41573;51.446;-2.018;2022-10-15T04:00:58;99400.84;;;11.40;100.00
55679;BME280;41573;51.446;-2.018;2022-10-15T04:03:24;99394.66;;;11.39;100.00
55679;BME280;41573;51.446;-2.018;2022-10-15T04:05:50;99393.81;;;11.39;100.00
55679;BME280;41573;51.446;-2.018;2022-10-15T04:08:16;99398.19;;;11.40;100.00
55679;BME280;41573;51.446;-2.018;2022-10-15T04:10:41;99385.69;;;11.41;100.00
55679;BME280;41573;51.446;-2.018;2022-10-15T04:13:07;99396.72;;;11.47;100.00
55679;BME280;41573;51.446;-2.018;2022-10-15T04:15:32;99391.72;;;11.43;100.00
55679;BME280;41573;51.446;-2.018;2022-10-15T04:17:57;99387.72;;;11.48;100.00
55679;BME280;41573;51.446;-2.018;2022-10-15T04:20:23;99387.22;;;11.54;100.00
55679;BME280;41573;51.446;-2.018;2022-10-15T04:22:48;99386.13;;;11.57;100.00
55679;BME280;41573;51.446;-2.018;2022-10-15T04:25:13;99388.06;;;11.55;100.00
55679;BME280;41573;51.446;-2.018;2022-10-15T04:27:39;99386.63;;;11.51;100.00
55679;BME280;41573;51.446;-2.018;2022-10-15T04:30:05;99393.78;;;11.50;100.00
55679;BME280;41573;51.446;-2.018;2022-10-15T04:32:30;99381.88;;;11.54;100.00
55679;BME280;41573;51.446;-2.018;2022-10-15T04:34:56;99392.81;;;11.51;100.00
55679;BME280;41573;51.446;-2.018;2022-10-15T04:37:21;99393.78;;;11.50;100.00
55679;BME280;41573;51.446;-2.018;2022-10-15T04:39:46;99395.72;;;11.48;100.00
55679;BME280;41573;51.446;-2.018;2022-10-15T04:42:12;99393.78;;;11.50;100.00
55679;BME280;41573;51.446;-2.018;2022-10-15T04:44:37;99385.78;;;11.50;100.00
55679;BME280;41573;51.446;-2.018;2022-10-15T04:47:02;99404.41;;;11.62;100.00
55679;BME280;41573;51.446;-2.018;2022-10-15T04:49:28;99403.78;;;11.58;100.00
55679;BME280;41573;51.446;-2.018;2022-10-15T04:51:53;99402.13;;;11.57;100.00
55679;BME280;41573;51.446;-2.018;2022-10-15T04:54:19;99403.09;;;11.56;100.00
55679;BME280;41573;51.446;-2.018;2022-10-15T04:56:44;99404.91;;;11.55;100.00
55679;BME280;41573;51.446;-2.018;2022-10-15T04:59:10;99401.00;;;11.60;100.00
55679;BME280;41573;51.446;-2.018;2022-10-15T05:01:35;99405.50;;;11.59;100.00
55679;BME280;41573;51.446;-2.018;2022-10-15T05:04:00;99415.59;;;11.55;100.00
55679;BME280;41573;51.446;-2.018;2022-10-15T05:06:26;99418.13;;;11.57;100.00
55679;BME280;41573;51.446;-2.018;2022-10-15T05:08:52;99419.78;;;11.58;100.00
55679;BME280;41573;51.446;-2.018;2022-10-15T05:11:23;99417.00;;;11.60;100.00
55679;BME280;41573;51.446;-2.018;2022-10-15T05:13:49;99422.59;;;11.56;100.00
55679;BME280;41573;51.446;-2.018;2022-10-15T05:16:20;99416.63;;;11.64;100.00
55679;BME280;41573;51.446;-2.018;2022-10-15T05:18:48;99412.53;;;11.60;100.00
55679;BME280;41573;51.446;-2.018;2022-10-15T05:21:15;99413.09;;;11.64;100.00
55679;BME280;41573;51.446;-2.018;2022-10-15T05:23:41;99402.69;;;11.61;100.00
55679;BME280;41573;51.446;-2.018;2022-10-15T05:26:11;99401.00;;;11.60;100.00
55679;BME280;41573;51.446;-2.018;2022-10-15T05:28:37;99399.59;;;11.55;100.00
55679;BME280;41573;51.446;-2.018;2022-10-15T05:31:07;99403.22;;;11.54;100.00
55679;BME280;41573;51.446;-2.018;2022-10-15T05:33:34;99406.84;;;11.53;100.00
55679;BME280;41573;51.446;-2.018;2022-10-15T05:36:12;99402.47;;;11.52;100.00
55679;BME280;41573;51.446;-2.018;2022-10-15T05:38:39;99406.97;;;11.52;100.00
55679;BME280;41573;51.446;-2.018;2022-10-15T05:41:05;99408.69;;;11.53;100.00
55679;BME280;41573;51.446;-2.018;2022-10-15T05:43:31;99399.59;;;11.55;100.00
55679;BME280;41573;51.446;-2.018;2022-10-15T05:45:56;99402.03;;;11.47;100.00
55679;BME280;41573;51.446;-2.018;2022-10-15T05:48:22;99405.66;;;11.46;100.00
55679;BME280;41573;51.446;-2.018;2022-10-15T05:50:47;99401.59;;;11.31;100.00
55679;BME280;41573;51.446;-2.018;2022-10-15T05:53:13;99390.09;;;11.30;100.00
55679;BME280;41573;51.446;-2.018;2022-10-15T05:55:38;99390.09;;;11.30;100.00
55679;BME280;41573;51.446;-2.018;2022-10-15T05:58:04;99395.22;;;11.22;100.00
55679;BME280;41573;51.446;-2.018;2022-10-15T06:00:30;99389.75;;;11.24;100.00
55679;BME280;41573;51.446;-2.018;2022-10-15T06:02:55;99382.00;;;11.20;100.00
55679;BME280;41573;51.446;-2.018;2022-10-15T06:05:21;99387.22;;;11.22;100.00
55679;BME280;41573;51.446;-2.018;2022-10-15T06:07:46;99390.25;;;11.17;100.00
55679;BME280;41573;51.446;-2.018;2022-10-15T06:10:11;99375.09;;;11.18;100.00
55679;BME280;41573;51.446;-2.018;2022-10-15T06:12:37;99380.09;;;11.11;100.00
55679;BME280;41573;51.446;-2.018;2022-10-15T06:15:04;99380.22;;;11.10;100.00
55679;BME280;41573;51.446;-2.018;2022-10-15T06:17:29;99373.69;;;11.02;100.00
55679;BME280;41573;51.446;-2.018;2022-10-15T06:19:55;99379.16;;;11.01;100.00
55679;BME280;41573;51.446;-2.018;2022-10-15T06:22:20;99378.56;;;10.97;100.00
55679;BME280;41573;51.446;-2.018;2022-10-15T06:24:46;99375.03;;;10.97;100.00
55679;BME280;41573;51.446;-2.018;2022-10-15T06:27:11;99377.84;;;10.95;100.00
55679;BME280;41573;51.446;-2.018;2022-10-15T06:29:38;99379.66;;;10.95;100.00
55679;BME280;41573;51.446;-2.018;2022-10-15T06:32:03;99381.72;;;10.91;100.00
55679;BME280;41573;51.446;-2.018;2022-10-15T06:34:29;99389.38;;;10.84;100.00
55679;BME280;41573;51.446;-2.018;2022-10-15T06:36:54;99388.75;;;10.81;100.00
55679;BME280;41573;51.446;-2.018;2022-10-15T06:39:20;99393.25;;;10.80;100.00
55679;BME280;41573;51.446;-2.018;2022-10-15T06:41:45;99387.41;;;10.86;100.00
55679;BME280;41573;51.446;-2.018;2022-10-15T06:44:10;99396.88;;;10.79;100.00
55679;BME280;41573;51.446;-2.018;2022-10-15T06:46:36;99385.13;;;10.82;100.00
55679;BME280;41573;51.446;-2.018;2022-10-15T06:49:02;99392.13;;;10.83;100.00
55679;BME280;41573;51.446;-2.018;2022-10-15T06:51:29;99382.34;;;10.83;100.00
55679;BME280;41573;51.446;-2.018;2022-10-15T06:53:54;99385.13;;;10.82;100.00
55679;BME280;41573;51.446;-2.018;2022-10-15T06:56:19;99380.13;;;10.89;100.00
55679;BME280;41573;51.446;-2.018;2022-10-15T06:58:45;99379.19;;;10.90;100.00
55679;BME280;41573;51.446;-2.018;2022-10-15T07:01:10;99378.47;;;10.88;100.00
55679;BME280;41573;51.446;-2.018;2022-10-15T07:03:36;99378.91;;;10.93;100.00
55679;BME280;41573;51.446;-2.018;2022-10-15T07:06:05;99377.97;;;10.94;100.00
55679;BME280;41573;51.446;-2.018;2022-10-15T07:08:31;99374.59;;;10.92;100.00
55679;BME280;41573;51.446;-2.018;2022-10-15T07:10:59;99369.97;;;10.94;100.00
55679;BME280;41573;51.446;-2.018;2022-10-15T07:13:25;99374.06;;;10.98;100.00
55679;BME280;41573;51.446;-2.018;2022-10-15T07:15:50;99365.56;;;11.04;100.00
55679;BME280;41573;51.446;-2.018;2022-10-15T07:18:18;99368.47;;;11.12;100.00
55679;BME280;41573;51.446;-2.018;2022-10-15T07:20:44;99376.47;;;11.12;100.00
55679;BME280;41573;51.446;-2.018;2022-10-15T07:23:09;99369.78;;;11.18;100.00
55679;BME280;41573;51.446;-2.018;2022-10-15T07:25:35;99361.66;;;11.19;100.00
55679;BME280;41573;51.446;-2.018;2022-10-15T07:28:00;99364.28;;;11.31;100.00
55679;BME280;41573;51.446;-2.018;2022-10-15T07:30:26;99358.81;;;11.32;100.00
55679;BME280;41573;51.446;-2.018;2022-10-15T07:32:54;99345.00;;;11.38;100.00
55679;BME280;41573;51.446;-2.018;2022-10-15T07:35:19;99337.19;;;11.47;100.00
55679;BME280;41573;51.446;-2.018;2022-10-15T07:37:45;99327.97;;;11.51;100.00
55679;BME280;41573;51.446;-2.018;2022-10-15T07:40:11;99336.50;;;11.66;100.00
55679;BME280;41573;51.446;-2.018;2022-10-15T07:42:37;99323.88;;;11.68;100.00
55679;BME280;41573;51.446;-2.018;2022-10-15T07:45:03;99319.84;;;11.73;100.00
55679;BME280;41573;51.446;-2.018;2022-10-15T07:47:28;99317.22;;;11.83;100.00
55679;BME280;41573;51.446;-2.018;2022-10-15T07:49:53;99301.22;;;11.83;100.00
55679;BME280;41573;51.446;-2.018;2022-10-15T07:52:19;99300.22;;;11.96;100.00
55679;BME280;41573;51.446;-2.018;2022-10-15T07:54:44;99305.72;;;12.04;100.00
55679;BME280;41573;51.446;-2.018;2022-10-15T07:57:10;99303.50;;;12.09;100.00
55679;BME280;41573;51.446;-2.018;2022-10-15T07:59:35;99301.69;;;12.19;100.00
55679;BME280;41573;51.446;-2.018;2022-10-15T08:02:00;99303.84;;;12.26;100.00
55679;BME280;41573;51.446;-2.018;2022-10-15T08:04:26;99299.22;;;12.28;100.00
55679;BME280;41573;51.446;-2.018;2022-10-15T08:06:51;99302.31;;;12.33;100.00
55679;BME280;41573;51.446;-2.018;2022-10-15T08:09:17;99299.56;;;12.44;100.00
55679;BME280;41573;51.446;-2.018;2022-10-15T08:11:42;99318.00;;;12.57;100.00
55679;BME280;41573;51.446;-2.018;2022-10-15T08:14:08;99322.06;;;12.51;100.00
55679;BME280;41573;51.446;-2.018;2022-10-15T08:16:34;99320.19;;;12.42;100.00
55679;BME280;41573;51.446;-2.018;2022-10-15T08:18:59;99320.16;;;12.32;100.00
55679;BME280;41573;51.446;-2.018;2022-10-15T08:21:25;99335.16;;;12.23;100.00
55679;BME280;41573;51.446;-2.018;2022-10-15T08:23:51;99338.56;;;12.26;100.00
55679;BME280;41573;51.446;-2.018;2022-10-15T08:26:16;99333.53;;;12.42;100.00
55679;BME280;41573;51.446;-2.018;2022-10-15T08:28:41;99338.06;;;12.41;100.00
55679;BME280;41573;51.446;-2.018;2022-10-15T08:31:07;99333.53;;;12.42;100.00
55679;BME280;41573;51.446;-2.018;2022-10-15T08:33:34;99338.38;;;12.48;100.00
55679;BME280;41573;51.446;-2.018;2022-10-15T08:35:59;99337.22;;;12.41;100.00
55679;BME280;41573;51.446;-2.018;2022-10-15T08:38:25;99335.19;;;12.33;100.00
55679;BME280;41573;51.446;-2.018;2022-10-15T08:40:53;99348.53;;;12.33;100.00
55679;BME280;41573;51.446;-2.018;2022-10-15T08:45:56;99342.25;;;12.34;100.00
55679;BME280;41573;51.446;-2.018;2022-10-15T08:48:29;99350.38;;;12.33;100.00
55679;BME280;41573;51.446;-2.018;2022-10-15T08:51:06;99347.31;;;12.37;100.00
55679;BME280;41573;51.446;-2.018;2022-10-15T08:53:38;99340.13;;;12.38;100.00
55679;BME280;41573;51.446;-2.018;2022-10-15T08:56:20;99344.81;;;12.46;100.00
55679;BME280;41573;51.446;-2.018;2022-10-15T08:58:57;99354.38;;;12.48;100.00
55679;BME280;41573;51.446;-2.018;2022-10-15T09:04:35;99358.31;;;12.44;100.00
55679;BME280;41573;51.446;-2.018;2022-10-15T09:07:25;99367.28;;;12.43;100.00
55679;BME280;41573;51.446;-2.018;2022-10-15T09:12:58;99368.66;;;12.37;100.00
55679;BME280;41573;51.446;-2.018;2022-10-15T09:15:25;99369.13;;;12.43;100.00
55679;BME280;41573;51.446;-2.018;2022-10-15T09:17:53;99370.50;;;12.37;100.00
55679;BME280;41573;51.446;-2.018;2022-10-15T09:20:25;99362.16;;;12.30;100.00
55679;BME280;41573;51.446;-2.018;2022-10-15T09:22:54;99358.56;;;12.41;100.00
55679;BME280;41573;51.446;-2.018;2022-10-15T09:25:22;99356.88;;;12.40;100.00
55679;BME280;41573;51.446;-2.018;2022-10-15T09:27:50;99356.75;;;12.41;100.00
55679;BME280;41573;51.446;-2.018;2022-10-15T09:30:33;99363.91;;;12.41;100.00
55679;BME280;41573;51.446;-2.018;2022-10-15T09:33:32;99365.34;;;12.45;100.00
55679;BME280;41573;51.446;-2.018;2022-10-15T09:36:10;99381.00;;;12.59;100.00
55679;BME280;41573;51.446;-2.018;2022-10-15T09:41:39;99393.19;;;12.52;100.00
55679;BME280;41573;51.446;-2.018;2022-10-15T09:44:10;99384.19;;;12.53;100.00
55679;BME280;41573;51.446;-2.018;2022-10-15T09:46:46;99389.66;;;12.52;100.00
55679;BME280;41573;51.446;-2.018;2022-10-15T09:49:15;99392.38;;;12.62;100.00
55679;BME280;41573;51.446;-2.018;2022-10-15T09:54:21;99395.66;;;12.75;100.00
55679;BME280;41573;51.446;-2.018;2022-10-15T09:56:52;99397.78;;;12.81;100.00
55679;BME280;41573;51.446;-2.018;2022-10-15T09:59:20;99398.25;;;12.86;100.00
55679;BME280;41573;51.446;-2.018;2022-10-15T10:04:32;99408.19;;;12.84;100.00
55679;BME280;41573;51.446;-2.018;2022-10-15T10:07:03;99413.69;;;12.83;100.00
55679;BME280;41573;51.446;-2.018;2022-10-15T10:10:02;99395.94;;;12.82;100.00
55679;BME280;41573;51.446;-2.018;2022-10-15T10:12:31;99402.56;;;12.87;100.00
55679;BME280;41573;51.446;-2.018;2022-10-15T10:15:00;99400.53;;;13.01;100.00
55679;BME280;41573;51.446;-2.018;2022-10-15T10:17:28;99399.84;;;13.18;100.00
55679;BME280;41573;51.446;-2.018;2022-10-15T10:25:32;99390.44;;;13.34;100.00
55679;BME280;41573;51.446;-2.018;2022-10-15T10:28:20;99403.13;;;13.41;100.00
55679;BME280;41573;51.446;-2.018;2022-10-15T10:30:58;99393.00;;;13.55;100.00
55679;BME280;41573;51.446;-2.018;2022-10-15T10:33:36;99405.53;;;13.54;100.00
55679;BME280;41573;51.446;-2.018;2022-10-15T10:36:07;99398.50;;;13.53;100.00
55679;BME280;41573;51.446;-2.018;2022-10-15T10:38:35;99407.09;;;13.67;100.00
55679;BME280;41573;51.446;-2.018;2022-10-15T10:41:09;99393.41;;;13.99;100.00
55679;BME280;41573;51.446;-2.018;2022-10-15T10:43:40;99397.00;;;14.27;100.00
55679;BME280;41573;51.446;-2.018;2022-10-15T10:46:18;99398.91;;;14.45;100.00
55679;BME280;41573;51.446;-2.018;2022-10-15T10:48:46;99406.75;;;14.56;100.00
55679;BME280;41573;51.446;-2.018;2022-10-15T10:51:21;99391.97;;;14.52;100.00
55679;BME280;41573;51.446;-2.018;2022-10-15T10:54:01;99379.50;;;14.33;100.00
55679;BME280;41573;51.446;-2.018;2022-10-15T10:56:34;99385.31;;;14.28;100.00
55679;BME280;41573;51.446;-2.018;2022-10-15T10:59:18;99381.06;;;14.36;100.00
55679;BME280;41573;51.446;-2.018;2022-10-15T11:01:46;99381.84;;;14.46;100.00
55679;BME280;41573;51.446;-2.018;2022-10-15T11:04:32;99383.94;;;14.52;100.00
55679;BME280;41573;51.446;-2.018;2022-10-15T11:07:26;99380.88;;;14.47;100.00
55679;BME280;41573;51.446;-2.018;2022-10-15T11:15:24;99355.41;;;14.71;100.00
55679;BME280;41573;51.446;-2.018;2022-10-15T11:20:46;99363.94;;;14.84;100.00
55679;BME280;41573;51.446;-2.018;2022-10-15T11:26:09;99363.22;;;15.10;100.00
55679;BME280;41573;51.446;-2.018;2022-10-15T11:34:33;99363.44;;;15.16;100.00
55679;BME280;41573;51.446;-2.018;2022-10-15T11:37:11;99374.81;;;15.28;100.00
55679;BME280;41573;51.446;-2.018;2022-10-15T11:40:02;99378.94;;;15.41;100.00
55679;BME280;41573;51.446;-2.018;2022-10-15T11:42:55;99375.97;;;15.44;100.00
55679;BME280;41573;51.446;-2.018;2022-10-15T11:45:37;99378.69;;;15.52;100.00
55679;BME280;41573;51.446;-2.018;2022-10-15T11:48:33;99372.88;;;15.57;100.00
55679;BME280;41573;51.446;-2.018;2022-10-15T11:56:25;99358.66;;;14.92;100.00
55679;BME280;41573;51.446;-2.018;2022-10-15T11:58:56;99351.63;;;14.91;100.00
55679;BME280;41573;51.446;-2.018;2022-10-15T12:01:32;99352.66;;;15.08;100.00
55679;BME280;41573;51.446;-2.018;2022-10-15T12:04:04;99357.94;;;15.18;100.00
55679;BME280;41573;51.446;-2.018;2022-10-15T12:06:36;99359.41;;;15.12;100.00
55679;BME280;41573;51.446;-2.018;2022-10-15T12:09:05;99365.81;;;15.02;100.00
55679;BME280;41573;51.446;-2.018;2022-10-15T12:11:48;99371.97;;;14.84;100.00
55679;BME280;41573;51.446;-2.018;2022-10-15T12:14:26;99360.91;;;14.59;100.00
55679;BME280;41573;51.446;-2.018;2022-10-15T12:19:59;99360.59;;;14.35;100.00
55679;BME280;41573;51.446;-2.018;2022-10-15T12:28:19;99379.59;;;13.94;100.00
55679;BME280;41573;51.446;-2.018;2022-10-15T12:30:58;99377.63;;;13.96;100.00
55679;BME280;41573;51.446;-2.018;2022-10-15T12:36:05;99367.47;;;14.00;100.00
55679;BME280;41573;51.446;-2.018;2022-10-15T12:41:19;99342.34;;;14.20;100.00
55679;BME280;41573;51.446;-2.018;2022-10-15T12:43:49;99342.69;;;14.35;100.00
55679;BME280;41573;51.446;-2.018;2022-10-15T12:46:18;99340.59;;;14.39;100.00
55679;BME280;41573;51.446;-2.018;2022-10-15T12:48:45;99340.97;;;14.44;100.00
55679;BME280;41573;51.446;-2.018;2022-10-15T12:53:52;99342.75;;;14.63;100.00
55679;BME280;41573;51.446;-2.018;2022-10-15T12:56:24;99341.78;;;14.64;100.00
55679;BME280;41573;51.446;-2.018;2022-10-15T12:58:58;99338.94;;;14.56;100.00
55679;BME280;41573;51.446;-2.018;2022-10-15T13:01:29;99334.31;;;14.48;100.00
55679;BME280;41573;51.446;-2.018;2022-10-15T13:04:14;99329.31;;;14.35;100.00
55679;BME280;41573;51.446;-2.018;2022-10-15T13:06:39;99331.75;;;14.28;100.00
55679;BME280;41573;51.446;-2.018;2022-10-15T13:11:40;99329.97;;;14.09;100.00
55679;BME280;41573;51.446;-2.018;2022-10-15T13:14:17;99325.50;;;14.00;100.00
55679;BME280;41573;51.446;-2.018;2022-10-15T13:16:46;99330.59;;;13.93;100.00
55679;BME280;41573;51.446;-2.018;2022-10-15T13:19:27;99324.66;;;13.90;100.00
55679;BME280;41573;51.446;-2.018;2022-10-15T13:21:57;99328.88;;;13.92;100.00
55679;BME280;41573;51.446;-2.018;2022-10-15T13:24:25;99326.91;;;14.04;100.00
55679;BME280;41573;51.446;-2.018;2022-10-15T13:26:52;99321.75;;;14.21;100.00
55679;BME280;41573;51.446;-2.018;2022-10-15T13:29:23;99322.72;;;14.57;100.00
55679;BME280;41573;51.446;-2.018;2022-10-15T13:31:50;99317.38;;;14.85;100.00
55679;BME280;41573;51.446;-2.018;2022-10-15T13:34:29;99312.47;;;15.16;100.00
55679;BME280;41573;51.446;-2.018;2022-10-15T13:36:57;99308.66;;;15.37;100.00
55679;BME280;41573;51.446;-2.018;2022-10-15T13:39:34;99305.72;;;15.48;100.00
55679;BME280;41573;51.446;-2.018;2022-10-15T13:44:31;99308.59;;;15.73;100.00
55679;BME280;41573;51.446;-2.018;2022-10-15T13:46:56;99303.06;;;15.75;100.00
55679;BME280;41573;51.446;-2.018;2022-10-15T13:49:22;99288.81;;;15.74;100.00
55679;BME280;41573;51.446;-2.018;2022-10-15T13:51:49;99286.16;;;15.56;100.00
55679;BME280;41573;51.446;-2.018;2022-10-15T13:54:27;99287.09;;;15.47;100.00
55679;BME280;41573;51.446;-2.018;2022-10-15T13:56:56;99278.16;;;15.38;100.00
55679;BME280;41573;51.446;-2.018;2022-10-15T13:59:25;99271.72;;;15.31;100.00
55679;BME280;41573;51.446;-2.018;2022-10-15T14:01:55;99268.28;;;15.21;100.00
55679;BME280;41573;51.446;-2.018;2022-10-15T14:04:26;99264.59;;;15.04;100.00
55679;BME280;41573;51.446;-2.018;2022-10-15T14:06:54;99272.50;;;14.87;100.00
55679;BME280;41573;51.446;-2.018;2022-10-15T14:11:53;99272.16;;;14.72;100.00
55679;BME280;41573;51.446;-2.018;2022-10-15T14:14:35;99278.53;;;14.89;100.00
55679;BME280;41573;51.446;-2.018;2022-10-15T14:17:06;99279.78;;;15.13;100.00
55679;BME280;41573;51.446;-2.018;2022-10-15T14:19:35;99269.88;;;15.76;100.00
55679;BME280;41573;51.446;-2.018;2022-10-15T14:22:02;99261.91;;;15.84;100.00
55679;BME280;41573;51.446;-2.018;2022-10-15T14:24:35;99262.47;;;15.96;100.00